Martino Silvestri

Chefscout - Genoa
3 Apr 2027
Samstag
Verarbeitung

Persönlichkeit

Anpassungsfähigkeit (2) Ehrgeiz (12) Kontroverse (12) Loyalität (3) Druck (9) Professionalität (1) Fairness (9) Temperament (16)

Profil

Trainerstil Demokratisch
Lizenz Kontinentale B
Entschlossenheit 12
Menschenführung 10
Motivation 13
Disziplin 7
Arbeitszufriedenheit
100%
Ermüdung
0%
Rolle Chefscout
Gehalt 97.4K p/W
Vertrag 14.03.2030

Leistung

Verhalten Gut
Trainingseffektivität
45%
Spielerentwicklung
45%
Verletzungsprävention
45%
Taktische Umsetzung
25%

Letzte Ereignisse

Spieler begutachtet jetzt
Nahm an einer Scouting-Besprechung teil jetzt
Empfahl ein Transferziel jetzt
Empfahl ein Transferziel jetzt
Spieler begutachtet jetzt
Spieler begutachtet jetzt
Spieler begutachtet 7T her
Spieler begutachtet 7T her

Aktuell beobachtet

132
Spieler Verein Status Fähigkeit Vertrauen Beobachtet Zuletzt beobachtet Letzte Stimme
Marco Brescianini Fiorentina Aktiv 146 / 145 40% 14 02.04.2027 -
Lorenzo Pirola Olympiacos Aktiv 141 / 139 40% 1 02.04.2027 -
Bart van Rooij Twente Aktiv 141 / 135 40% 12 01.04.2027 -
Danilo Botafogo Aktiv 140 / 142 40% 13 01.04.2027 -
Felipe Loyola Pisa Aktiv 143 / 132 40% 9 01.04.2027 -
Christos Zafeiris Galatasaray Aktiv 129 / 150 40% 7 30.03.2027 -
Gonzalo Plata Dinamo Moscow Aktiv 146 / 127 40% 4 28.03.2027 -
Stiven Shpendi Empoli Aktiv 121 / 131 40% 4 28.03.2027 -
Midana Cassamá Portimonense Aktiv 103 / 105 40% 1 28.03.2027 -
Gabriel Sara Galatasaray Aktiv 143 / 150 40% 26 26.03.2027 -
Abu Kamara Portsmouth Aktiv 118 / 122 40% 5 23.03.2027 -
Gilson Benchimol Akron Aktiv 103 / 106 40% 1 23.03.2027 -
Eljon Toci Dolomiti Bellunesi Aktiv 97 / 101 40% 1 23.03.2027 -
Chema Andrés VfB Stuttgart Aktiv 137 / 139 40% 8 20.03.2027 -
Sabil Hansen Randers Aktiv 115 / 102 40% 1 19.03.2027 -
Vanja Tomić Radnicki 1923 Aktiv 95 / 101 40% 1 19.03.2027 -
Alex Tóth Bournemouth Aktiv 120 / 121 40% 1 19.03.2027 -
David Romero Parma Aktiv 124 / 128 40% 6 15.03.2027 -
Job Ochieng Real Sociedad Aktiv 113 / 113 40% 2 15.03.2027 -
Kaio Jorge Cruzeiro Aktiv 143 / 135 40% 1 15.03.2027 -
Michel Ndary Adopo Cagliari Aktiv 137 / 137 40% 7 08.03.2027 -
Matija Frigan Parma Aktiv 129 / 129 40% 5 07.03.2027 -
Pavel Meleshin Sochi Aktiv 122 / 119 40% 2 07.03.2027 -
Cédric Don Maccabi Haifa Aktiv 119 / 123 40% 2 07.03.2027 -
Mathis Amougou RC Strasbourg Aktiv 115 / 119 40% 2 03.03.2027 -
Andrija Bulatović RC Lens Aktiv 123 / 124 40% 1 03.03.2027 -
Miodrag Pivaš Newcastle United Aktiv 105 / 113 40% 1 03.03.2027 -
Maeson King Oxford United Aktiv 102 / 113 40% 2 02.03.2027 -
Khalfan Nader Al Shaab Aktiv 108 / 111 40% 1 02.03.2027 -
Thierry Rendall Correia Venezia Aktiv 134 / 144 40% 13 26.02.2027 -
Felipe Augusto Zenit Aktiv 123 / 131 40% 3 22.02.2027 -
Freddie Draper Lincoln City Aktiv 103 / 110 40% 2 22.02.2027 -
Enrico Delprato Parma Aktiv 132 / 133 40% 1 22.02.2027 -
Peter Itodo Metalist Aktiv 107 / 116 40% 4 19.02.2027 -
Lassina Traoré Shakhtar Aktiv 117 / 114 40% 1 17.02.2027 -
Elia Petrelli Forli Aktiv 95 / 93 40% 1 17.02.2027 -
Cristian Shpendi Cesena Abgelehnt 136 / 123 40% 10 16.02.2027 Ablehnen
Eguinaldo Shakhtar Aktiv 128 / 141 40% 2 16.02.2027 -
Odilon Kossounou Atalanta Aktiv 139 / 136 40% 6 13.02.2027 -
Hugo Rincón Athletic Bilbao Aktiv 129 / 131 40% 3 30.01.2027 -
Gustavo Mantuan Zenit Aktiv 130 / 137 40% 1 22.01.2027 -
Moses Cobnan Krasnodar Aktiv 119 / 123 40% 1 22.01.2027 -
Gilson Benchimol Akron Verloren 118 / 110 40% 1 19.01.2027 -
Albek Gongapshev Shinnik Aktiv 95 / 85 40% 1 19.01.2027 -
Jan Hurtado Volos NPS Verloren 114 / 115 40% 1 19.01.2027 -
Jacques Siwe Rubin Aktiv 113 / 121 40% 1 18.01.2027 -
Matteo Rover Reggiana Verloren 113 / 114 40% 4 07.01.2027 -
Moses Cobnan Krasnodar Verloren 109 / 126 40% 2 07.01.2027 -
Bitello Dinamo Moscow Bericht bereit 135 / 135 68% 1 01.01.2027 Befürworten
Israel Reyes Club America Bericht bereit 137 / 137 68% 1 01.01.2027 -
Iván Martín Racing Club Bericht bereit 143 / 143 66% 1 01.01.2027 -
Jonathan Rowe Bologna Aktiv 126 / 126 40% 7 31.12.2026 -
Yegor Golenkov Rostov Aktiv 108 / 107 40% 2 30.12.2026 -
Simone Ianesi Pianese Aktiv 99 / 108 40% 1 30.12.2026 -
Luciano Gondou CSKA Moscow Aktiv 139 / 129 40% 6 28.12.2026 -
Filip Stojilković Pisa Aktiv 128 / 119 40% 3 28.12.2026 -
Alan Velasco Boca Juniors Aktiv 126 / 134 40% 5 27.12.2026 -
Alexander Díaz Deportivo Riestra Aktiv 113 / 115 40% 9 26.12.2026 -
Emanuele Pecorino Catanzaro Aktiv 103 / 108 40% 1 25.12.2026 -
Jack Vale Alcione Milano Aktiv 87 / 97 40% 1 24.12.2026 -
Camillo Tavernelli Arezzo Aktiv 112 / 109 40% 3 23.12.2026 -
Denis Rubanov Dinamo Stavropol Aktiv 92 / 93 40% 2 23.12.2026 -
Dardan Shabanhaxhaj Rubin Aktiv 107 / 124 40% 2 22.12.2026 -
Brayan León Mamelodi Sundowns Aktiv 114 / 107 40% 8 21.12.2026 -
Ramiro Ruiz Rodríguez Atlético Tucumán Aktiv 115 / 126 40% 2 20.12.2026 -
Brayan Gil Baltika Aktiv 134 / 128 40% 3 19.12.2026 -
Dejan Joveljić Seattle Sounders Aktiv 136 / 126 40% 3 18.12.2026 -
Tamerlan Musaev CSKA Moscow Aktiv 111 / 114 40% 4 18.12.2026 -
Arturo Cipriani Astra Aktiv 152 / 146 40% 4 17.12.2026 -
Amin Sarr Hellas Verona Aktiv 132 / 134 40% 3 15.12.2026 -
Matteo Cortesi Arezzo Aktiv 109 / 104 40% 1 13.12.2026 -
Maxence Caqueret Como Aktiv 134 / 132 40% 3 12.12.2026 -
Marezi Portsmouth Aktiv 114 / 121 40% 2 10.12.2026 -
Exequiel Zeballos Boca Juniors Aktiv 128 / 138 40% 4 08.12.2026 -
Miro Dinamo Makhachkala Aktiv 105 / 116 40% 1 08.12.2026 -
Tyreece Campbell Charlton Athletic Aktiv 113 / 113 40% 3 07.12.2026 -
Rocco Vata Watford Aktiv 121 / 123 40% 3 07.12.2026 -
Yorbe Vertessen Red Bull Salzburg Aktiv 123 / 124 40% 3 06.12.2026 -
Allahyar Sayyadmanesh Lech Aktiv 135 / 137 40% 1 05.12.2026 -
Josh Coburn Millwall Aktiv 114 / 113 40% 4 01.12.2026 -
Louis Munteanu DC United Aktiv 129 / 118 40% 5 28.11.2026 -
Bojan Radulović Huddersfield Town Aktiv 120 / 106 40% 1 25.11.2026 -
Juan Manuel Boselli Krasnodar Aktiv 132 / 121 40% 1 24.11.2026 -
Tadeo Allende Inter Miami CF Aktiv 113 / 132 40% 1 21.11.2026 -
Wessam Abou Ali Columbus Crew Aktiv 134 / 124 40% 1 21.11.2026 -
Simone Rabbi Ravenna Aktiv 112 / 104 40% 1 18.11.2026 -
Richard Koné Queens Park Rangers Aktiv 119 / 117 40% 5 16.11.2026 -
Tobias Bech AGF Aktiv 133 / 140 40% 1 16.11.2026 -
Gedson Fernandes Spartak Moscow Aktiv 128 / 142 40% 3 13.11.2026 -
Assad Al Hamlawi Universitatea Craiova Aktiv 123 / 113 40% 2 13.11.2026 -
Diego Costa Krasnodar Aktiv 134 / 127 40% 1 13.11.2026 -
Julian von Moos Grasshopper Aktiv 121 / 116 40% 1 10.11.2026 -
Filip Kubala Banik Ostrava Aktiv 119 / 111 40% 1 09.11.2026 -
Manfred Ugalde Spartak Moscow Aktiv 135 / 132 40% 4 06.11.2026 -
Ayoub Jabbari FC Cincinnati Aktiv 110 / 105 40% 1 05.11.2026 -
Stefano Bonaiti Lecco Aktiv 99 / 99 30% 1 / 1m 04.11.2026 -
Yoshan Valois Lanús Aktiv 118 / 119 40% 2 03.11.2026 -
Josh Sargent Toronto FC Aktiv 128 / 136 40% 2 28.10.2026 -
Adrian Svanbäck BK Hacken Aktiv 115 / 110 40% 1 23.10.2026 -
Franco Fagúndez Estudiantes Aktiv 115 / 116 40% 1 15.10.2026 -
Adriano Bertaccini Anderlecht Aktiv 120 / 118 40% 1 15.10.2026 -
Taiyo Koga Kashiwa Reysol Aktiv 141 / 137 40% 1 15.10.2026 -
Enzo González Defensores Aktiv 104 / 104 40% 1 12.10.2026 -
Michy Fellaini KV Oostende Aktiv 137 / 136 40% 2 10.10.2026 -
Leonardo Campana New England Revolution Aktiv 127 / 129 40% 1 09.10.2026 -
Ozziel Herrera Tigres Aktiv 128 / 137 40% 1 09.10.2026 -
Efraín Álvarez Guadalajara Aktiv 135 / 126 40% 2 08.10.2026 -
Matthew Hoppe SonderjyskE Aktiv 109 / 100 40% 1 08.10.2026 -
Ezequiel Almirón Estudiantes Aktiv 112 / 119 40% 1 07.10.2026 -
Nacer Tielemans Mouscron Aktiv 126 / 141 40% 3 07.09.2026 -
Julián Bazán New York Red Bulls Aktiv 110 / 116 40% 1 07.09.2026 -
Thijmen Blokzijl Groningen Aktiv 121 / 123 40% 1 07.09.2026 -
Matías Gómez Celta Aktiv 111 / 124 40% 1 07.09.2026 -
Dylan Gorosito Boca Juniors Aktiv 111 / 122 40% 1 07.09.2026 -
Eliás Montiel Pachuca Aktiv 117 / 135 40% 2 05.09.2026 -
Sergio Quintero La Equidad Aktiv 138 / 137 40% 3 05.09.2026 -
Cemran Dansin Orlando Pirates Aktiv 110 / 126 40% 1 05.09.2026 -
Matthew Litherland Blackburn Rovers Aktiv 111 / 106 40% 1 04.09.2026 -
Chris Rigg Sunderland Aktiv 133 / 137 40% 2 03.09.2026 -
Ignacio Perruzzi San Lorenzo Aktiv 117 / 123 40% 1 03.09.2026 -
Tobías Correa Uruguay Montevideo Aktiv 92 / 105 40% 1 02.09.2026 -
Noah Nartey Olympique Lyonnais Aktiv 129 / 131 40% 1 02.09.2026 -
Yarek Gąsiorowski PSV Aktiv 139 / 136 40% 1 27.08.2026 -
Elías Báez Atlanta United FC Aktiv 112 / 117 40% 1 26.08.2026 -
Stuart Hawkins Seattle Sounders Aktiv 94 / 111 40% 1 25.08.2026 -
Arsène Kouassi FC Lorient Aktiv 126 / 125 40% 1 25.08.2026 -
Antoine Bernede Hellas Verona Aktiv 118 / 122 69% 1 24.08.2026 Befürworten
Lamine Ballo Inter Aktiv 100 / 99 40% 1 24.08.2026 -
Lucas Agazzi Defensor Sporting Aktiv 122 / 127 40% 1 17.08.2026 -
Nobel Mendy Hull City Aktiv 119 / 131 40% 2 02.08.2026 -
Facundo Di Biasi Gimnasia La Plata Aktiv 114 / 118 40% 1 02.08.2026 -
Veljko Milosavljević Bournemouth Aktiv 117 / 138 40% 1 01.08.2026 -